Governador Jorge Teixeira de Oliveira Airport


Codes: SBPV/PVH
Name: Governador Jorge Teixeira de Oliveira Airport
City: Porto Velho
Country: Brazil
Elevation: 290 ft.
Wikipedia:

Photos at Governador Jorge Teixeira de Oliveira Airport


   Photos courtesy of SpottingLog. You can add your own sightings and photos by signing up for a free trial today.



No photos found.

Weather at Governador Jorge Teixeira de Oliveira Airport


Time (UTC)DescriptionTempratureWindCloud coverageVisibilityPressureHumidity
23-May-2024 21:00Light Rain31°C2 mph, SE80%10000m1010hPa64%
24-May-2024 00:00Light Rain28°C2 mph, N59%10000m1010hPa79%
24-May-2024 03:00Light Rain24°C2 mph, NE72%10000m1011hPa96%
24-May-2024 06:00Broken Clouds23°C2 mph, NE57%10000m1011hPa97%
24-May-2024 09:00Broken Clouds23°C0 mph, NW72%10000m1011hPa97%
24-May-2024 12:00Overcast Clouds25°C2 mph, SE86%10000m1013hPa90%
24-May-2024 15:00Broken Clouds34°C2 mph, SE72%10000m1013hPa51%
24-May-2024 18:00Overcast Clouds36°C2 mph, E89%10000m1009hPa41%
24-May-2024 21:00Overcast Clouds29°C2 mph, NE100%10000m1008hPa68%
25-May-2024 00:00Light Rain27°C2 mph, S100%10000m1010hPa82%
25-May-2024 03:00Light Rain24°C2 mph, S100%10000m1012hPa94%
25-May-2024 06:00Overcast Clouds23°C2 mph, S100%10000m1011hPa96%
25-May-2024 09:00Overcast Clouds23°C2 mph, S100%10000m1011hPa95%
25-May-2024 12:00Overcast Clouds25°C4 mph, SE98%10000m1013hPa85%
25-May-2024 15:00Few Clouds33°C4 mph, SE21%10000m1013hPa50%
25-May-2024 18:00Few Clouds35°C4 mph, SE18%10000m1009hPa42%
25-May-2024 21:00Overcast Clouds29°C2 mph, SE97%10000m1008hPa67%
26-May-2024 00:00Overcast Clouds28°C2 mph, SE100%10000m1010hPa70%
26-May-2024 03:00Overcast Clouds27°C4 mph, SE86%10000m1012hPa75%
26-May-2024 06:00Overcast Clouds24°C2 mph, SE93%10000m1011hPa87%
26-May-2024 09:00Overcast Clouds23°C2 mph, S100%10000m1012hPa91%
26-May-2024 12:00Overcast Clouds25°C4 mph, S93%10000m1014hPa72%
26-May-2024 15:00Overcast Clouds30°C4 mph, SE89%10000m1014hPa51%
26-May-2024 18:00Broken Clouds33°C4 mph, SE82%10000m1010hPa45%
26-May-2024 21:00Overcast Clouds29°C0 mph, S100%10000m1009hPa64%
27-May-2024 00:00Overcast Clouds27°C2 mph, S100%10000m1011hPa69%
27-May-2024 03:00Overcast Clouds25°C2 mph, S100%10000m1012hPa77%
27-May-2024 06:00Overcast Clouds25°C2 mph, SW100%10000m1012hPa76%
27-May-2024 09:00Overcast Clouds23°C2 mph, S100%10000m1012hPa84%
27-May-2024 12:00Overcast Clouds25°C4 mph, SE100%10000m1015hPa74%
27-May-2024 15:00Overcast Clouds31°C4 mph, SE99%10000m1015hPa51%
27-May-2024 18:00Overcast Clouds34°C4 mph, SE99%10000m1011hPa43%
27-May-2024 21:00Broken Clouds31°C2 mph, SE81%10000m1011hPa56%
28-May-2024 00:00Overcast Clouds26°C2 mph, SE86%10000m1013hPa70%
28-May-2024 03:00Overcast Clouds25°C2 mph, S99%10000m1014hPa76%
28-May-2024 06:00Overcast Clouds24°C2 mph, S94%10000m1013hPa82%
28-May-2024 09:00Overcast Clouds23°C4 mph, S95%10000m1014hPa82%
28-May-2024 12:00Broken Clouds25°C4 mph, S79%10000m1016hPa70%
28-May-2024 15:00Overcast Clouds30°C4 mph, SE100%10000m1016hPa46%
28-May-2024 18:00Overcast Clouds33°C4 mph, SE95%10000m1013hPa41%